createdAt,value
2019-01-28T00:01:48.026Z,98457.61
2019-01-28T00:04:19.713Z,98462.91
2019-01-28T00:06:51.385Z,98467.11
2019-01-28T00:09:22.948Z,98465.78
2019-01-28T00:11:55.131Z,98456.95
2019-01-28T00:14:26.777Z,98468.06
2019-01-28T00:16:58.321Z,98459.14
2019-01-28T00:19:29.971Z,98464.55
2019-01-28T00:22:01.626Z,98460.92
2019-01-28T00:24:33.289Z,98462.02
2019-01-28T00:27:04.866Z,98458.73
2019-01-28T00:29:36.511Z,98458.28
2019-01-28T00:32:08.067Z,98457.82
2019-01-28T00:34:39.641Z,98466.02
2019-01-28T00:37:11.208Z,98461.34
2019-01-28T00:39:42.852Z,98462.55
2019-01-28T00:42:14.430Z,98463.05
2019-01-28T00:44:45.991Z,98456.47
2019-01-28T00:47:17.970Z,98455.23
2019-01-28T00:49:49.537Z,98456.10
2019-01-28T00:52:21.310Z,98457.79
2019-01-28T00:54:52.870Z,98461.14
2019-01-28T00:57:24.494Z,98464.52
2019-01-28T00:59:56.145Z,98467.98
2019-01-28T01:02:27.712Z,98463.50
2019-01-28T01:04:59.353Z,98473.64
2019-01-28T01:07:30.990Z,98471.69
2019-01-28T01:10:02.827Z,98474.11
2019-01-28T01:12:34.452Z,98472.66
2019-01-28T01:15:07.206Z,98473.64
2019-01-28T01:17:38.827Z,98475.44
2019-01-28T01:20:11.672Z,98480.02
2019-01-28T01:22:43.307Z,98481.70
2019-01-28T01:25:15.496Z,98480.16
2019-01-28T01:27:47.316Z,98481.70
2019-01-28T01:30:19.239Z,98482.44
2019-01-28T01:32:51.164Z,98478.00
2019-01-28T01:35:22.730Z,98477.13
2019-01-28T01:37:54.288Z,98478.81
2019-01-28T01:40:25.859Z,98479.33
2019-01-28T01:42:58.491Z,98478.59
2019-01-28T01:45:30.131Z,98471.36
2019-01-28T01:48:01.693Z,98473.28
2019-01-28T01:50:33.324Z,98477.48
2019-01-28T01:53:04.940Z,98477.13
2019-01-28T01:55:36.573Z,98476.76
2019-01-28T01:58:08.137Z,98477.62
2019-01-28T02:00:39.700Z,98477.64
2019-01-28T02:03:11.312Z,98478.09
2019-01-28T02:05:42.974Z,98481.93
2019-01-28T02:08:14.605Z,98473.22
2019-01-28T02:10:46.252Z,98479.03
2019-01-28T02:13:18.220Z,98476.61
2019-01-28T02:15:49.884Z,98470.66
2019-01-28T02:18:24.614Z,98475.20
2019-01-28T02:20:57.113Z,98467.55
2019-01-28T02:23:29.755Z,98470.41
2019-01-28T02:26:01.334Z,98476.66
2019-01-28T02:28:32.948Z,98481.44
2019-01-28T02:31:04.542Z,98480.34
2019-01-28T02:33:36.109Z,98485.86
2019-01-28T02:36:07.699Z,98488.39
2019-01-28T02:38:39.336Z,98487.65
2019-01-28T02:41:10.992Z,98484.11
2019-01-28T02:43:42.549Z,98491.31
2019-01-28T02:46:14.144Z,98495.84
2019-01-28T02:48:45.809Z,98500.28
2019-01-28T02:51:17.460Z,98502.40
2019-01-28T02:53:49.248Z,98499.50
2019-01-28T02:56:21.336Z,98499.87
2019-01-28T02:58:52.906Z,98498.00
2019-01-28T03:01:24.501Z,98500.95
2019-01-28T03:03:56.132Z,98499.35
2019-01-28T03:06:27.779Z,98500.95
2019-01-28T03:08:59.342Z,98507.17
2019-01-28T03:11:30.915Z,98502.71
2019-01-28T03:14:02.549Z,98505.73
2019-01-28T03:16:34.185Z,98495.91
2019-01-28T03:19:05.759Z,98499.56
2019-01-28T03:21:37.322Z,98500.80
2019-01-28T03:24:08.877Z,98500.03
2019-01-28T03:26:40.526Z,98504.00
2019-01-28T03:29:12.121Z,98508.59
2019-01-28T03:31:43.785Z,98503.35
2019-01-28T03:34:15.416Z,98502.64
2019-01-28T03:36:47.360Z,98507.56
2019-01-28T03:39:19.250Z,98509.19
2019-01-28T03:41:51.198Z,98504.92
2019-01-28T03:44:22.762Z,98513.09
2019-01-28T03:46:54.416Z,98502.45
2019-01-28T03:49:26.046Z,98502.22
2019-01-28T03:51:57.979Z,98508.94
2019-01-28T03:54:29.547Z,98511.64
2019-01-28T03:57:01.144Z,98510.40
2019-01-28T03:59:32.721Z,98503.50
2019-01-28T04:02:04.334Z,98498.70
2019-01-28T04:04:35.949Z,98503.50
2019-01-28T04:07:07.614Z,98499.22
2019-01-28T04:09:39.197Z,98499.15
2019-01-28T04:12:10.774Z,98510.17
2019-01-28T04:14:42.346Z,98506.55
2019-01-28T04:17:14.003Z,98506.83
2019-01-28T04:19:45.695Z,98506.92
2019-01-28T04:22:17.371Z,98512.94
2019-01-28T04:24:49.262Z,98509.91
2019-01-28T04:27:21.196Z,98511.70
2019-01-28T04:29:52.750Z,98507.73
2019-01-28T04:32:24.324Z,98510.59
2019-01-28T04:34:55.910Z,98514.08
2019-01-28T04:37:27.472Z,98507.95
2019-01-28T04:39:59.058Z,98502.09
2019-01-28T04:42:30.631Z,98509.45
2019-01-28T04:45:02.265Z,98513.23
2019-01-28T04:47:34.145Z,98517.51
2019-01-28T04:50:06.959Z,98516.70
2019-01-28T04:52:38.598Z,98515.92
2019-01-28T04:55:10.179Z,98522.94
2019-01-28T04:57:42.835Z,98520.92
2019-01-28T05:00:16.762Z,98519.59
2019-01-28T05:02:48.426Z,98523.09
2019-01-28T05:05:20.435Z,98517.33
2019-01-28T05:07:52.288Z,98518.95
2019-01-28T05:10:24.210Z,98517.20
2019-01-28T05:12:55.797Z,98522.55
2019-01-28T05:15:27.373Z,98524.33
2019-01-28T05:17:58.964Z,98522.78
2019-01-28T05:20:30.541Z,98528.47
2019-01-28T05:23:02.192Z,98525.80
2019-01-28T05:25:33.756Z,98525.42
2019-01-28T05:28:05.344Z,98528.81
2019-01-28T05:30:36.928Z,98530.95
2019-01-28T05:33:08.809Z,98533.02
2019-01-28T05:35:40.433Z,98530.45
2019-01-28T05:38:11.996Z,98535.74
2019-01-28T05:40:43.566Z,98539.52
2019-01-28T05:43:15.201Z,98546.29
2019-01-28T05:45:46.781Z,98545.48
2019-01-28T05:48:18.411Z,98552.13
2019-01-28T05:50:50.493Z,98551.59
2019-01-28T05:53:22.364Z,98551.67
2019-01-28T05:55:54.283Z,98554.16
2019-01-28T05:58:25.966Z,98567.78
2019-01-28T06:00:57.542Z,98557.78
2019-01-28T06:03:29.127Z,98557.19
2019-01-28T06:06:00.706Z,98557.34
2019-01-28T06:08:32.282Z,98559.09
2019-01-28T06:11:03.849Z,98558.32
2019-01-28T06:13:35.503Z,98551.23
2019-01-28T06:16:07.083Z,98552.93
2019-01-28T06:18:38.669Z,98556.39
2019-01-28T06:21:10.301Z,98565.00
2019-01-28T06:23:41.879Z,98561.52
2019-01-28T06:26:13.527Z,98565.02
2019-01-28T06:28:45.272Z,98568.16
2019-01-28T06:31:16.825Z,98569.94
2019-01-28T06:33:48.384Z,98571.77
2019-01-28T06:36:20.547Z,98571.20
2019-01-28T06:38:52.360Z,98574.02
2019-01-28T06:41:24.262Z,98577.63
2019-01-28T06:43:55.844Z,98583.20
2019-01-28T06:46:27.501Z,98578.50
2019-01-28T06:48:59.080Z,98579.84
2019-01-28T06:51:30.698Z,98578.50
2019-01-28T06:54:02.255Z,98573.28
2019-01-28T06:56:33.828Z,98568.61
2019-01-28T06:59:05.458Z,98571.50
2019-01-28T07:01:37.093Z,98572.48
2019-01-28T07:04:08.670Z,98576.45
2019-01-28T07:06:40.314Z,98581.35
2019-01-28T07:09:11.905Z,98577.97
2019-01-28T07:11:43.457Z,98577.80
2019-01-28T07:14:15.060Z,98578.77
2019-01-28T07:16:46.707Z,98580.96
2019-01-28T07:19:18.469Z,98586.67
2019-01-28T07:21:50.503Z,98584.02
2019-01-28T07:24:22.296Z,98592.31
2019-01-28T07:26:54.230Z,98595.80
2019-01-28T07:29:25.802Z,98596.66
2019-01-28T07:31:57.369Z,98599.78
2019-01-28T07:34:29.020Z,98600.00
2019-01-28T07:37:00.593Z,98605.09
2019-01-28T07:39:32.173Z,98608.02
2019-01-28T07:42:03.752Z,98614.78
2019-01-28T07:44:35.399Z,98611.72
2019-01-28T07:47:06.964Z,98617.16
2019-01-28T07:49:38.533Z,98622.61
2019-01-28T07:52:10.102Z,98625.72
2019-01-28T07:54:41.697Z,98625.14
2019-01-28T07:57:13.464Z,98627.34
2019-01-28T07:59:45.158Z,98629.48
2019-01-28T08:02:17.092Z,98629.39
2019-01-28T08:04:49.302Z,98634.71
2019-01-28T08:07:21.594Z,98642.91
2019-01-28T08:09:53.216Z,98640.89
2019-01-28T08:12:24.789Z,98652.52
2019-01-28T08:14:56.417Z,98649.72
2019-01-28T08:17:28.957Z,98657.88
2019-01-28T08:20:00.607Z,98656.50
2019-01-28T08:22:32.255Z,98664.47
2019-01-28T08:25:03.909Z,98668.91
2019-01-28T08:27:35.559Z,98666.81
2019-01-28T08:30:08.741Z,98672.03
2019-01-28T08:32:40.362Z,98674.63
2019-01-28T08:35:12.020Z,98677.02
2019-01-28T08:37:43.647Z,98672.63
2019-01-28T08:40:15.336Z,98675.33
2019-01-28T08:42:47.377Z,98671.70
2019-01-28T08:45:19.347Z,98669.45
2019-01-28T08:47:51.392Z,98676.06
2019-01-28T08:50:23.679Z,98675.03
2019-01-28T08:52:55.300Z,98676.25
2019-01-28T08:55:27.263Z,98672.51
2019-01-28T08:57:58.885Z,98681.17
2019-01-28T09:00:35.784Z,98684.45
2019-01-28T09:03:07.424Z,98687.12
2019-01-28T09:05:38.989Z,98688.94
2019-01-28T09:08:10.654Z,98690.86
2019-01-28T09:10:42.234Z,98687.84
2019-01-28T09:13:13.890Z,98694.30
2019-01-28T09:15:45.512Z,98693.50
2019-01-28T09:18:17.939Z,98694.56
2019-01-28T09:20:49.593Z,98701.30
2019-01-28T09:23:21.418Z,98702.94
2019-01-28T09:25:52.990Z,98703.30
2019-01-28T09:28:26.025Z,98701.36
2019-01-28T09:30:57.669Z,98702.58
2019-01-28T09:33:29.320Z,98703.68
2019-01-28T09:36:00.877Z,98704.29
2019-01-28T09:38:32.723Z,98705.37
2019-01-28T09:41:04.616Z,98701.14
2019-01-28T09:43:36.267Z,98706.67
2019-01-28T09:46:07.840Z,98701.10
2019-01-28T09:48:39.476Z,98702.20
2019-01-28T09:51:11.069Z,98710.80
2019-01-28T09:53:42.693Z,98708.22
2019-01-28T09:56:14.344Z,98710.52
2019-01-28T09:58:45.984Z,98713.95
2019-01-28T10:01:17.567Z,98720.87
2019-01-28T10:03:49.367Z,98721.77
2019-01-28T10:06:22.387Z,98726.78
2019-01-28T10:08:54.304Z,98725.02
2019-01-28T10:11:25.966Z,98722.41
2019-01-28T10:13:57.577Z,98725.63
2019-01-28T10:16:29.231Z,98730.45
2019-01-28T10:19:00.849Z,98733.69
2019-01-28T10:21:32.488Z,98730.91
2019-01-28T10:24:04.321Z,98721.24
2019-01-28T10:26:35.970Z,98726.45
2019-01-28T10:29:07.537Z,98732.88
2019-01-28T10:31:39.166Z,98733.23
2019-01-28T10:34:10.792Z,98738.42
2019-01-28T10:36:42.526Z,98740.52
2019-01-28T10:39:14.140Z,98737.10
2019-01-28T10:41:45.808Z,98735.15
2019-01-28T10:44:17.414Z,98741.73
2019-01-28T10:46:49.348Z,98742.65
2019-01-28T10:49:21.406Z,98739.27
2019-01-28T10:51:53.044Z,98745.19
2019-01-28T10:54:24.686Z,98746.78
2019-01-28T10:56:56.334Z,98750.97
2019-01-28T10:59:27.958Z,98746.11
2019-01-28T11:02:01.069Z,98749.81
2019-01-28T11:04:32.690Z,98754.87
2019-01-28T11:07:04.327Z,98750.51
2019-01-28T11:09:35.967Z,98737.95
2019-01-28T11:12:07.716Z,98745.46
2019-01-28T11:14:39.325Z,98738.45
2019-01-28T11:17:12.165Z,98741.84
2019-01-28T11:19:44.127Z,98740.62
2019-01-28T11:22:15.723Z,98745.05
2019-01-28T11:24:47.504Z,98752.77
2019-01-28T11:27:19.455Z,98749.84
2019-01-28T11:29:51.520Z,98751.53
2019-01-28T11:32:23.113Z,98750.30
2019-01-28T11:34:54.930Z,98743.02
2019-01-28T11:37:26.672Z,98743.70
2019-01-28T11:39:58.321Z,98746.13
2019-01-28T11:42:30.107Z,98742.40
2019-01-28T11:45:01.763Z,98739.39
2019-01-28T11:47:33.943Z,98736.31
2019-01-28T11:50:05.785Z,98739.19
2019-01-28T11:52:37.419Z,98744.91
2019-01-28T11:55:09.084Z,98745.22
2019-01-28T11:57:40.727Z,98746.45
2019-01-28T12:00:21.131Z,98745.22
2019-01-28T12:02:52.760Z,98745.09
2019-01-28T12:05:24.311Z,98748.39
2019-01-28T12:07:55.985Z,98756.05
2019-01-28T12:10:27.541Z,98749.48
2019-01-28T12:12:59.224Z,98745.48
2019-01-28T12:15:30.857Z,98743.27
2019-01-28T12:18:02.501Z,98753.28
2019-01-28T12:20:34.080Z,98754.31
2019-01-28T12:23:05.766Z,98751.34
2019-01-28T12:25:37.376Z,98749.63
2019-01-28T12:28:08.976Z,98754.62
2019-01-28T12:30:40.596Z,98755.63
2019-01-28T12:33:12.255Z,98758.11
2019-01-28T12:35:43.898Z,98755.33
2019-01-28T12:38:15.516Z,98760.67
2019-01-28T12:40:47.504Z,98762.67
2019-01-28T12:43:19.457Z,98762.62
2019-01-28T12:45:51.439Z,98767.66
2019-01-28T12:48:23.308Z,98759.28
2019-01-28T12:50:55.015Z,98758.73
2019-01-28T12:53:26.589Z,98759.02
2019-01-28T12:55:58.148Z,98752.53
2019-01-28T12:58:29.686Z,98753.49
2019-01-28T13:01:03.801Z,98749.63
2019-01-28T13:03:35.450Z,98746.69
2019-01-28T13:06:07.090Z,98746.30
2019-01-28T13:08:38.728Z,98748.75
2019-01-28T13:11:10.377Z,98747.32
2019-01-28T13:13:41.956Z,98745.98
2019-01-28T13:16:13.513Z,98746.03
2019-01-28T13:18:45.105Z,98743.44
2019-01-28T13:21:16.662Z,98745.34
2019-01-28T13:23:48.510Z,98754.44
2019-01-28T13:26:20.435Z,98751.77
2019-01-28T13:28:52.365Z,98751.52
2019-01-28T13:31:24.385Z,98752.13
2019-01-28T13:33:55.969Z,98752.64
2019-01-28T13:36:27.525Z,98747.16
2019-01-28T13:38:59.161Z,98750.23
2019-01-28T13:41:31.042Z,98751.52
2019-01-28T13:44:02.656Z,98754.59
2019-01-28T13:46:34.299Z,98753.21
2019-01-28T13:49:05.954Z,98757.78
2019-01-28T13:51:37.904Z,98752.75
2019-01-28T13:54:09.474Z,98757.68
2019-01-28T13:56:41.037Z,98756.88
2019-01-28T13:59:16.501Z,98754.82
2019-01-28T14:01:45.900Z,98760.77
2019-01-28T14:04:18.462Z,98758.93
2019-01-28T14:06:50.505Z,98765.50
2019-01-28T14:09:22.372Z,98764.80
2019-01-28T14:11:56.601Z,98768.45
2019-01-28T14:14:29.053Z,98770.42
2019-01-28T14:17:01.265Z,98776.11
2019-01-28T14:19:33.214Z,98773.56
2019-01-28T14:22:05.360Z,98775.02
2019-01-28T14:24:37.865Z,98766.56
2019-01-28T14:27:09.999Z,98769.08
2019-01-28T14:29:42.255Z,98774.30
2019-01-28T14:32:14.109Z,98777.94
2019-01-28T14:34:54.101Z,98768.73
2019-01-28T14:37:26.244Z,98773.70
2019-01-28T14:39:58.379Z,98774.55
2019-01-28T14:42:30.287Z,98776.84
2019-01-28T14:45:02.794Z,98775.63
2019-01-28T14:47:35.192Z,98773.92
2019-01-28T14:50:09.611Z,98782.03
2019-01-28T14:52:41.278Z,98785.81
2019-01-28T14:55:12.931Z,98786.27
2019-01-28T14:57:47.734Z,98791.13
2019-01-28T15:00:22.802Z,98787.00
2019-01-28T15:02:54.532Z,98788.69
2019-01-28T15:05:26.688Z,98790.39
2019-01-28T15:07:58.834Z,98786.63
2019-01-28T15:10:32.105Z,98786.89
2019-01-28T15:13:04.367Z,98794.37
2019-01-28T15:15:37.644Z,98791.01
2019-01-28T15:18:10.907Z,98789.53
2019-01-28T15:20:44.101Z,98791.22
2019-01-28T15:23:17.663Z,98788.56
2019-01-28T15:25:52.180Z,98792.55
2019-01-28T15:28:25.023Z,98789.66
2019-01-28T15:30:57.658Z,98788.80
2019-01-28T15:33:30.498Z,98790.86
2019-01-28T15:36:03.153Z,98792.62
2019-01-28T15:38:35.063Z,98795.05
2019-01-28T15:41:17.593Z,98789.97
2019-01-28T15:43:53.339Z,98794.32
2019-01-28T15:46:26.996Z,98795.52
2019-01-28T15:49:00.529Z,98794.27
2019-01-28T15:51:33.029Z,98793.53
2019-01-28T15:54:06.578Z,98801.97
2019-01-28T15:56:39.099Z,98800.85
2019-01-28T15:59:10.992Z,98801.69
2019-01-28T16:01:43.885Z,98809.18
2019-01-28T16:04:16.525Z,98805.15
2019-01-28T16:06:53.880Z,98807.94
2019-01-28T16:09:28.929Z,98818.27
2019-01-28T16:12:00.156Z,98817.98
2019-01-28T16:14:32.659Z,98819.44
2019-01-28T16:17:04.307Z,98824.10
2019-01-28T16:19:36.303Z,98823.62
2019-01-28T16:22:08.475Z,98832.12
2019-01-28T16:24:40.124Z,98837.06
2019-01-28T16:27:13.382Z,98834.87
2019-01-28T16:29:50.939Z,98838.48
2019-01-28T16:32:25.410Z,98845.34
2019-01-28T16:34:57.915Z,98842.72
2019-01-28T16:37:31.711Z,98842.19
2019-01-28T16:40:05.556Z,98840.52
2019-01-28T16:42:37.809Z,98839.72
2019-01-28T16:45:10.494Z,98842.87
2019-01-28T16:47:42.153Z,98836.39
2019-01-28T16:50:16.129Z,98834.53
2019-01-28T16:52:47.968Z,98840.14
2019-01-28T16:55:19.840Z,98836.01
2019-01-28T16:57:51.790Z,98842.81
2019-01-28T17:00:31.543Z,98843.94
2019-01-28T17:03:03.194Z,98842.75
2019-01-28T17:05:34.868Z,98844.66
2019-01-28T17:08:06.562Z,98844.19
2019-01-28T17:10:38.214Z,98840.38
2019-01-28T17:13:10.286Z,98843.84
2019-01-28T17:15:42.924Z,98847.22
2019-01-28T17:18:14.657Z,98846.70
2019-01-28T17:20:46.318Z,98849.50
2019-01-28T17:23:18.033Z,98843.08
2019-01-28T17:25:49.897Z,98854.94
2019-01-28T17:28:21.794Z,98854.95
2019-01-28T17:30:53.377Z,98852.70
2019-01-28T17:33:25.037Z,98853.47
2019-01-28T17:35:56.690Z,98851.40
2019-01-28T17:38:28.379Z,98853.41
2019-01-28T17:41:00.026Z,98853.14
2019-01-28T17:43:31.711Z,98853.91
2019-01-28T17:46:03.294Z,98850.59
2019-01-28T17:48:36.433Z,98860.73
2019-01-28T17:51:08.066Z,98860.81
2019-01-28T17:53:39.771Z,98862.31
2019-01-28T17:56:11.441Z,98860.61
2019-01-28T17:58:43.119Z,98861.19
2019-01-28T18:01:14.782Z,98859.20
2019-01-28T18:03:46.801Z,98867.53
2019-01-28T18:06:19.031Z,98865.33
2019-01-28T18:08:51.866Z,98868.04
2019-01-28T18:11:23.691Z,98858.58
2019-01-28T18:13:55.435Z,98860.59
2019-01-28T18:16:27.072Z,98863.55
2019-01-28T18:18:58.946Z,98867.14
2019-01-28T18:21:30.614Z,98863.18
2019-01-28T18:24:02.792Z,98861.11
2019-01-28T18:26:34.453Z,98866.91
2019-01-28T18:29:06.364Z,98867.97
2019-01-28T18:31:38.033Z,98865.02
2019-01-28T18:34:09.910Z,98867.33
2019-01-28T18:36:41.808Z,98870.62
2019-01-28T18:39:13.815Z,98868.34
2019-01-28T18:41:46.203Z,98865.52
2019-01-28T18:44:18.120Z,98872.98
2019-01-28T18:46:49.826Z,98872.14
2019-01-28T18:49:22.169Z,98875.54
2019-01-28T18:51:53.818Z,98875.83
2019-01-28T18:54:25.587Z,98871.29
2019-01-28T18:56:57.265Z,98875.55
2019-01-28T18:59:28.955Z,98880.34
2019-01-28T19:02:01.540Z,98878.25
2019-01-28T19:04:33.875Z,98886.67
2019-01-28T19:07:23.703Z,98887.41
2019-01-28T19:10:03.361Z,98882.86
2019-01-28T19:12:50.835Z,98882.67
2019-01-28T19:15:50.793Z,98885.48
2019-01-28T19:18:27.147Z,98876.52
2019-01-28T19:21:08.145Z,98886.33
2019-01-28T19:23:40.476Z,98884.35
2019-01-28T19:26:12.190Z,98882.83
2019-01-28T19:28:43.893Z,98888.19
2019-01-28T19:31:15.608Z,98888.56
2019-01-28T19:33:47.343Z,98885.36
2019-01-28T19:36:19.291Z,98888.49
2019-01-28T19:38:51.071Z,98891.69
2019-01-28T19:41:22.845Z,98893.19
2019-01-28T19:43:55.903Z,98896.39
2019-01-28T19:46:27.607Z,98894.48
2019-01-28T19:48:59.291Z,98889.20
2019-01-28T19:51:31.031Z,98894.28
2019-01-28T19:54:02.729Z,98898.52
2019-01-28T19:56:34.463Z,98894.27
2019-01-28T19:59:06.247Z,98898.62
2019-01-28T20:01:37.976Z,98893.41
2019-01-28T20:04:09.656Z,98895.08
2019-01-28T20:06:41.369Z,98894.23
2019-01-28T20:09:14.520Z,98891.22
2019-01-28T20:11:46.409Z,98894.87
2019-01-28T20:14:19.958Z,98889.97
2019-01-28T20:16:52.289Z,98890.41
2019-01-28T20:19:24.236Z,98895.80
2019-01-28T20:21:58.329Z,98895.69
2019-01-28T20:24:31.970Z,98895.69
2019-01-28T20:27:03.575Z,98898.72
2019-01-28T20:29:35.638Z,98902.95
2019-01-28T20:32:07.624Z,98901.80
2019-01-28T20:34:43.556Z,98904.83
2019-01-28T20:37:12.723Z,98903.19
2019-01-28T20:39:44.420Z,98911.70
2019-01-28T20:42:16.100Z,98905.14
2019-01-28T20:44:49.200Z,98911.85
2019-01-28T20:47:23.644Z,98910.85
2019-01-28T20:49:55.703Z,98913.11
2019-01-28T20:52:27.461Z,98910.67
2019-01-28T20:55:01.273Z,98906.50
2019-01-28T20:57:33.134Z,98908.66
2019-01-28T21:00:06.389Z,98906.06
2019-01-28T21:02:38.458Z,98904.73
2019-01-28T21:05:11.240Z,98903.69
2019-01-28T21:07:43.324Z,98900.36
2019-01-28T21:10:16.173Z,98905.36
2019-01-28T21:12:48.345Z,98904.59
2019-01-28T21:15:21.747Z,98899.80
2019-01-28T21:17:53.455Z,98902.50
2019-01-28T21:20:25.159Z,98901.11
2019-01-28T21:22:59.105Z,98904.21
2019-01-28T21:25:30.783Z,98907.50
2019-01-28T21:28:02.474Z,98899.76
2019-01-28T21:30:34.486Z,98901.63
2019-01-28T21:33:06.172Z,98903.13
2019-01-28T21:35:59.502Z,98902.91
2019-01-28T21:38:35.921Z,98905.83
2019-01-28T21:41:07.514Z,98904.89
2019-01-28T21:43:40.184Z,98911.16
2019-01-28T21:46:12.928Z,98907.89
2019-01-28T21:48:44.620Z,98909.08
2019-01-28T21:51:16.284Z,98905.98
2019-01-28T21:53:48.198Z,98901.67
2019-01-28T21:56:20.034Z,98896.14
2019-01-28T21:58:52.189Z,98896.65
2019-01-28T22:01:23.752Z,98896.46
2019-01-28T22:03:55.373Z,98897.98
2019-01-28T22:06:27.064Z,98899.14
2019-01-28T22:08:58.659Z,98901.03
2019-01-28T22:11:30.318Z,98906.25
2019-01-28T22:14:01.910Z,98905.78
2019-01-28T22:16:33.537Z,98907.30
2019-01-28T22:19:05.123Z,98907.27
2019-01-28T22:21:36.711Z,98910.03
2019-01-28T22:24:08.364Z,98906.34
2019-01-28T22:26:39.955Z,98909.55
2019-01-28T22:29:11.561Z,98907.94
2019-01-28T22:31:43.218Z,98913.98
2019-01-28T22:34:14.890Z,98911.91
2019-01-28T22:36:46.481Z,98906.53
2019-01-28T22:39:18.197Z,98909.55
2019-01-28T22:41:50.064Z,98910.39
2019-01-28T22:44:22.008Z,98912.55
2019-01-28T22:46:53.597Z,98909.25
2019-01-28T22:49:25.247Z,98915.94
2019-01-28T22:51:56.816Z,98915.64
2019-01-28T22:54:28.403Z,98915.26
2019-01-28T22:56:59.962Z,98913.86
2019-01-28T22:59:31.635Z,98916.77
2019-01-28T23:02:04.365Z,98919.30
2019-01-28T23:04:36.067Z,98916.95
2019-01-28T23:07:07.713Z,98915.81
2019-01-28T23:09:39.307Z,98915.26
2019-01-28T23:12:10.948Z,98910.41
2019-01-28T23:14:42.606Z,98912.98
2019-01-28T23:17:15.266Z,98917.78
2019-01-28T23:19:46.931Z,98919.86
2019-01-28T23:22:18.831Z,98921.67
2019-01-28T23:24:50.428Z,98919.78
2019-01-28T23:27:22.129Z,98921.74
2019-01-28T23:29:54.955Z,98922.12
2019-01-28T23:32:26.777Z,98921.29
2019-01-28T23:34:58.438Z,98924.69
2019-01-28T23:37:30.084Z,98923.71
2019-01-28T23:40:01.688Z,98918.91
2019-01-28T23:42:33.336Z,98926.28
2019-01-28T23:45:04.922Z,98923.44
2019-01-28T23:47:36.580Z,98924.64
2019-01-28T23:50:08.305Z,98926.84
2019-01-28T23:52:40.858Z,98927.30
2019-01-28T23:55:12.524Z,98931.64
2019-01-28T23:57:45.156Z,98929.19
